sensor_id;sensor_type;location;lat;lon;timestamp;pressure;altitude;pressure_sealevel;temperature;humidity
37648;BME280;23490;53.656;10.076;2023-04-15T00:01:28;99285.84;;;-145.95;100.00
37648;BME280;23490;53.656;10.076;2023-04-15T00:03:54;99327.13;;;-145.95;100.00
37648;BME280;23490;53.656;10.076;2023-04-15T00:06:20;99327.13;;;-145.95;100.00
37648;BME280;23490;53.656;10.076;2023-04-15T00:08:46;99318.88;;;-145.95;100.00
37648;BME280;23490;53.656;10.076;2023-04-15T00:11:12;99273.44;;;-145.95;100.00
37648;BME280;23490;53.656;10.076;2023-04-15T00:13:38;99310.63;;;-145.95;100.00
37648;BME280;23490;53.656;10.076;2023-04-15T00:16:04;99302.34;;;-145.95;100.00
37648;BME280;23490;53.656;10.076;2023-04-15T00:18:30;99265.19;;;-145.95;100.00
37648;BME280;23490;53.656;10.076;2023-04-15T00:20:56;99277.56;;;-145.95;100.00
37648;BME280;23490;53.656;10.076;2023-04-15T00:23:21;99310.63;;;-145.95;100.00
37648;BME280;23490;53.656;10.076;2023-04-15T00:25:47;99318.88;;;-145.95;100.00
37648;BME280;23490;53.656;10.076;2023-04-15T00:28:12;99335.41;;;-145.95;100.00
37648;BME280;23490;53.656;10.076;2023-04-15T00:30:38;99314.75;;;-145.95;100.00
37648;BME280;23490;53.656;10.076;2023-04-15T00:33:03;99269.31;;;-145.95;100.00
37648;BME280;23490;53.656;10.076;2023-04-15T00:35:29;99331.28;;;-145.95;100.00
37648;BME280;23490;53.656;10.076;2023-04-15T00:37:57;99343.66;;;-145.95;100.00
37648;BME280;23490;53.656;10.076;2023-04-15T00:40:22;99320.94;;;-145.95;100.00
37648;BME280;23490;53.656;10.076;2023-04-15T00:42:49;99323.00;;;-145.95;100.00
37648;BME280;23490;53.656;10.076;2023-04-15T00:45:15;99294.09;;;-145.95;100.00
37648;BME280;23490;53.656;10.076;2023-04-15T00:47:42;99314.75;;;-145.95;100.00
37648;BME280;23490;53.656;10.076;2023-04-15T00:50:08;99339.53;;;-145.95;100.00
37648;BME280;23490;53.656;10.076;2023-04-15T00:52:33;99335.41;;;-145.95;100.00
37648;BME280;23490;53.656;10.076;2023-04-15T00:54:59;99335.41;;;-145.95;100.00
37648;BME280;23490;53.656;10.076;2023-04-15T00:57:25;99310.63;;;-145.95;100.00
37648;BME280;23490;53.656;10.076;2023-04-15T00:59:51;99333.34;;;-145.95;100.00
37648;BME280;23490;53.656;10.076;2023-04-15T01:02:17;99335.41;;;-145.95;100.00
37648;BME280;23490;53.656;10.076;2023-04-15T01:04:42;99302.34;;;-145.95;100.00
37648;BME280;23490;53.656;10.076;2023-04-15T01:07:07;99358.13;;;-145.95;100.00
37648;BME280;23490;53.656;10.076;2023-04-15T01:09:33;99337.47;;;-145.95;100.00
37648;BME280;23490;53.656;10.076;2023-04-15T01:11:58;99331.28;;;-145.95;100.00
37648;BME280;23490;53.656;10.076;2023-04-15T01:14:24;99333.34;;;-145.95;100.00
37648;BME280;23490;53.656;10.076;2023-04-15T01:16:51;99318.88;;;-145.95;100.00
37648;BME280;23490;53.656;10.076;2023-04-15T01:19:18;99310.63;;;-145.95;100.00
37648;BME280;23490;53.656;10.076;2023-04-15T01:21:44;99323.00;;;-145.95;100.00
37648;BME280;23490;53.656;10.076;2023-04-15T01:24:09;99343.66;;;-145.95;100.00
37648;BME280;23490;53.656;10.076;2023-04-15T01:26:39;99314.75;;;-145.95;100.00
37648;BME280;23490;53.656;10.076;2023-04-15T01:29:05;99343.66;;;-145.95;100.00
37648;BME280;23490;53.656;10.076;2023-04-15T01:31:31;99341.59;;;-145.95;100.00
37648;BME280;23490;53.656;10.076;2023-04-15T01:33:56;99360.19;;;-145.95;100.00
37648;BME280;23490;53.656;10.076;2023-04-15T01:36:22;99335.41;;;-145.95;100.00
37648;BME280;23490;53.656;10.076;2023-04-15T01:38:48;99306.50;;;-145.95;100.00
37648;BME280;23490;53.656;10.076;2023-04-15T01:41:13;99318.88;;;-145.95;100.00
37648;BME280;23490;53.656;10.076;2023-04-15T01:47:00;99343.66;;;-145.95;100.00
37648;BME280;23490;53.656;10.076;2023-04-15T01:49:26;99356.06;;;-145.95;100.00
37648;BME280;23490;53.656;10.076;2023-04-15T01:51:51;99343.66;;;-145.95;100.00
37648;BME280;23490;53.656;10.076;2023-04-15T01:54:18;99320.94;;;-145.95;100.00
37648;BME280;23490;53.656;10.076;2023-04-15T01:56:43;99341.59;;;-145.95;100.00
37648;BME280;23490;53.656;10.076;2023-04-15T01:59:08;99335.41;;;-145.95;100.00
37648;BME280;23490;53.656;10.076;2023-04-15T02:01:34;99323.00;;;-145.95;100.00
37648;BME280;23490;53.656;10.076;2023-04-15T02:03:59;99335.41;;;-145.95;100.00
37648;BME280;23490;53.656;10.076;2023-04-15T02:06:25;99339.53;;;-145.95;100.00
37648;BME280;23490;53.656;10.076;2023-04-15T02:08:50;99347.78;;;-145.95;100.00
37648;BME280;23490;53.656;10.076;2023-04-15T02:11:15;99323.00;;;-145.95;100.00
37648;BME280;23490;53.656;10.076;2023-04-15T02:13:41;99351.91;;;-145.95;100.00
37648;BME280;23490;53.656;10.076;2023-04-15T02:16:16;99327.13;;;-145.95;100.00
37648;BME280;23490;53.656;10.076;2023-04-15T02:18:45;99327.13;;;-145.95;100.00
37648;BME280;23490;53.656;10.076;2023-04-15T02:21:11;99300.28;;;-145.95;100.00
37648;BME280;23490;53.656;10.076;2023-04-15T02:23:37;99314.75;;;-145.95;100.00
37648;BME280;23490;53.656;10.076;2023-04-15T02:26:02;99339.53;;;-145.95;100.00
37648;BME280;23490;53.656;10.076;2023-04-15T02:28:27;99339.53;;;-145.95;100.00
37648;BME280;23490;53.656;10.076;2023-04-15T02:30:53;99333.34;;;-145.95;100.00
37648;BME280;23490;53.656;10.076;2023-04-15T02:33:21;99323.00;;;-145.95;100.00
37648;BME280;23490;53.656;10.076;2023-04-15T02:35:46;99329.19;;;-145.95;100.00
37648;BME280;23490;53.656;10.076;2023-04-15T02:38:12;99327.13;;;-145.95;100.00
37648;BME280;23490;53.656;10.076;2023-04-15T02:40:39;99323.00;;;-145.95;100.00
37648;BME280;23490;53.656;10.076;2023-04-15T02:43:04;99323.00;;;-145.95;100.00
37648;BME280;23490;53.656;10.076;2023-04-15T02:45:31;99335.41;;;-145.95;100.00
37648;BME280;23490;53.656;10.076;2023-04-15T02:47:57;99360.19;;;-145.95;100.00
37648;BME280;23490;53.656;10.076;2023-04-15T02:50:22;99306.50;;;-145.95;100.00
37648;BME280;23490;53.656;10.076;2023-04-15T02:52:49;99289.97;;;-145.95;100.00
37648;BME280;23490;53.656;10.076;2023-04-15T02:55:15;99314.75;;;-145.95;100.00
37648;BME280;23490;53.656;10.076;2023-04-15T02:57:42;99314.75;;;-145.95;100.00
37648;BME280;23490;53.656;10.076;2023-04-15T03:00:08;99327.13;;;-145.95;100.00
37648;BME280;23490;53.656;10.076;2023-04-15T03:02:38;99306.50;;;-145.95;100.00
37648;BME280;23490;53.656;10.076;2023-04-15T03:05:05;99314.75;;;-145.95;100.00
37648;BME280;23490;53.656;10.076;2023-04-15T03:07:31;99256.94;;;-145.95;100.00
37648;BME280;23490;53.656;10.076;2023-04-15T03:09:56;99364.31;;;-145.95;100.00
37648;BME280;23490;53.656;10.076;2023-04-15T03:12:22;99325.06;;;-145.95;100.00
37648;BME280;23490;53.656;10.076;2023-04-15T03:14:47;99339.53;;;-145.95;100.00
37648;BME280;23490;53.656;10.076;2023-04-15T03:17:14;99312.69;;;-145.95;100.00
37648;BME280;23490;53.656;10.076;2023-04-15T03:19:40;99304.41;;;-145.95;100.00
37648;BME280;23490;53.656;10.076;2023-04-15T03:22:05;99298.22;;;-145.95;100.00
37648;BME280;23490;53.656;10.076;2023-04-15T03:24:30;99279.63;;;-145.95;100.00
37648;BME280;23490;53.656;10.076;2023-04-15T03:26:56;99318.88;;;-145.95;100.00
37648;BME280;23490;53.656;10.076;2023-04-15T03:29:22;99285.84;;;-145.95;100.00
37648;BME280;23490;53.656;10.076;2023-04-15T03:31:47;99289.97;;;-145.95;100.00
37648;BME280;23490;53.656;10.076;2023-04-15T03:34:13;99302.34;;;-145.95;100.00
37648;BME280;23490;53.656;10.076;2023-04-15T03:36:39;99306.50;;;-145.95;100.00
37648;BME280;23490;53.656;10.076;2023-04-15T03:39:05;99323.00;;;-145.95;100.00
37648;BME280;23490;53.656;10.076;2023-04-15T03:41:31;99306.50;;;-145.95;100.00
37648;BME280;23490;53.656;10.076;2023-04-15T03:43:57;99318.88;;;-145.95;100.00
37648;BME280;23490;53.656;10.076;2023-04-15T03:46:24;99335.41;;;-145.95;100.00
37648;BME280;23490;53.656;10.076;2023-04-15T03:48:49;99331.28;;;-145.95;100.00
37648;BME280;23490;53.656;10.076;2023-04-15T03:51:16;99304.41;;;-145.95;100.00
37648;BME280;23490;53.656;10.076;2023-04-15T03:53:41;99289.97;;;-145.95;100.00
37648;BME280;23490;53.656;10.076;2023-04-15T03:56:07;99298.22;;;-145.95;100.00
37648;BME280;23490;53.656;10.076;2023-04-15T03:58:32;99316.81;;;-145.95;100.00
37648;BME280;23490;53.656;10.076;2023-04-15T04:00:57;99323.00;;;-145.95;100.00
37648;BME280;23490;53.656;10.076;2023-04-15T04:03:23;99339.53;;;-145.95;100.00
37648;BME280;23490;53.656;10.076;2023-04-15T04:05:49;99314.75;;;-145.95;100.00
37648;BME280;23490;53.656;10.076;2023-04-15T04:08:15;99356.06;;;-145.95;100.00
37648;BME280;23490;53.656;10.076;2023-04-15T04:10:41;99314.75;;;-145.95;100.00
37648;BME280;23490;53.656;10.076;2023-04-15T04:13:07;99314.75;;;-145.95;100.00
37648;BME280;23490;53.656;10.076;2023-04-15T04:15:32;99308.56;;;-145.95;100.00
37648;BME280;23490;53.656;10.076;2023-04-15T04:17:57;99294.09;;;-145.95;100.00
37648;BME280;23490;53.656;10.076;2023-04-15T04:20:23;99314.75;;;-145.95;100.00
37648;BME280;23490;53.656;10.076;2023-04-15T04:22:48;99343.66;;;-145.95;100.00
37648;BME280;23490;53.656;10.076;2023-04-15T04:25:14;99306.50;;;-145.95;100.00
37648;BME280;23490;53.656;10.076;2023-04-15T04:27:39;99351.91;;;-145.95;100.00
37648;BME280;23490;53.656;10.076;2023-04-15T04:30:05;99289.97;;;-145.95;100.00
37648;BME280;23490;53.656;10.076;2023-04-15T04:32:31;99302.34;;;-145.95;100.00
37648;BME280;23490;53.656;10.076;2023-04-15T04:34:56;99308.56;;;-145.95;100.00
37648;BME280;23490;53.656;10.076;2023-04-15T04:37:22;99335.41;;;-145.95;100.00
37648;BME280;23490;53.656;10.076;2023-04-15T04:39:48;99331.28;;;-145.95;100.00
37648;BME280;23490;53.656;10.076;2023-04-15T04:42:14;99308.56;;;-145.95;100.00
37648;BME280;23490;53.656;10.076;2023-04-15T04:44:39;99335.41;;;-145.95;100.00
37648;BME280;23490;53.656;10.076;2023-04-15T04:47:04;99331.28;;;-145.95;100.00
37648;BME280;23490;53.656;10.076;2023-04-15T04:49:31;99333.34;;;-145.95;100.00
37648;BME280;23490;53.656;10.076;2023-04-15T04:51:57;99279.63;;;-145.95;100.00
37648;BME280;23490;53.656;10.076;2023-04-15T04:54:22;99320.94;;;-145.95;100.00
37648;BME280;23490;53.656;10.076;2023-04-15T04:56:49;99300.28;;;-145.95;100.00
37648;BME280;23490;53.656;10.076;2023-04-15T04:59:15;99302.34;;;-145.95;100.00
37648;BME280;23490;53.656;10.076;2023-04-15T05:01:41;99320.94;;;-145.95;100.00
37648;BME280;23490;53.656;10.076;2023-04-15T05:04:06;99300.28;;;-145.95;100.00
37648;BME280;23490;53.656;10.076;2023-04-15T05:06:32;99302.34;;;-145.95;100.00
37648;BME280;23490;53.656;10.076;2023-04-15T05:08:57;99294.09;;;-145.95;100.00
37648;BME280;23490;53.656;10.076;2023-04-15T05:11:23;99320.94;;;-145.95;100.00
37648;BME280;23490;53.656;10.076;2023-04-15T05:13:48;99323.00;;;-145.95;100.00
37648;BME280;23490;53.656;10.076;2023-04-15T05:16:14;99306.50;;;-145.95;100.00
37648;BME280;23490;53.656;10.076;2023-04-15T05:18:40;99281.72;;;-145.95;100.00
37648;BME280;23490;53.656;10.076;2023-04-15T05:21:05;99294.09;;;-145.95;100.00
37648;BME280;23490;53.656;10.076;2023-04-15T05:23:31;99259.00;;;-145.95;100.00
37648;BME280;23490;53.656;10.076;2023-04-15T05:25:56;99261.06;;;-145.95;100.00
37648;BME280;23490;53.656;10.076;2023-04-15T05:28:22;99277.56;;;-145.95;100.00
37648;BME280;23490;53.656;10.076;2023-04-15T05:30:47;99310.63;;;-145.95;100.00
37648;BME280;23490;53.656;10.076;2023-04-15T05:33:12;99287.91;;;-145.95;100.00
37648;BME280;23490;53.656;10.076;2023-04-15T05:35:38;99310.63;;;-145.95;100.00
37648;BME280;23490;53.656;10.076;2023-04-15T05:38:03;99294.09;;;-145.95;100.00
37648;BME280;23490;53.656;10.076;2023-04-15T05:40:31;99331.28;;;-145.95;100.00
37648;BME280;23490;53.656;10.076;2023-04-15T05:42:57;99298.22;;;-145.95;100.00
37648;BME280;23490;53.656;10.076;2023-04-15T05:45:22;99302.34;;;-145.95;100.00
37648;BME280;23490;53.656;10.076;2023-04-15T05:47:48;99265.19;;;-145.95;100.00
37648;BME280;23490;53.656;10.076;2023-04-15T05:50:18;99256.94;;;-145.95;100.00
37648;BME280;23490;53.656;10.076;2023-04-15T05:52:43;99306.50;;;-145.95;100.00
37648;BME280;23490;53.656;10.076;2023-04-15T05:55:10;99281.72;;;-145.95;100.00
37648;BME280;23490;53.656;10.076;2023-04-15T05:57:37;99294.09;;;-145.95;100.00
37648;BME280;23490;53.656;10.076;2023-04-15T06:00:05;99261.06;;;-145.95;100.00
37648;BME280;23490;53.656;10.076;2023-04-15T06:02:30;99302.34;;;-145.95;100.00
37648;BME280;23490;53.656;10.076;2023-04-15T06:04:56;99302.34;;;-145.95;100.00
37648;BME280;23490;53.656;10.076;2023-04-15T06:07:22;99300.28;;;-145.95;100.00
37648;BME280;23490;53.656;10.076;2023-04-15T06:09:48;99261.06;;;-145.95;100.00
37648;BME280;23490;53.656;10.076;2023-04-15T06:12:14;99320.94;;;-145.95;100.00
37648;BME280;23490;53.656;10.076;2023-04-15T06:14:39;99300.28;;;-145.95;100.00
37648;BME280;23490;53.656;10.076;2023-04-15T06:17:05;99294.09;;;-145.95;100.00
37648;BME280;23490;53.656;10.076;2023-04-15T06:19:31;99294.09;;;-145.95;100.00
37648;BME280;23490;53.656;10.076;2023-04-15T06:21:57;99273.44;;;-145.95;100.00
37648;BME280;23490;53.656;10.076;2023-04-15T06:24:24;99304.41;;;-145.95;100.00
37648;BME280;23490;53.656;10.076;2023-04-15T06:26:49;99277.56;;;-145.95;100.00
37648;BME280;23490;53.656;10.076;2023-04-15T06:29:14;99256.94;;;-145.95;100.00
37648;BME280;23490;53.656;10.076;2023-04-15T06:31:40;99273.44;;;-145.95;100.00
37648;BME280;23490;53.656;10.076;2023-04-15T06:34:06;99316.81;;;-145.95;100.00
37648;BME280;23490;53.656;10.076;2023-04-15T06:36:32;99323.00;;;-145.95;100.00
37648;BME280;23490;53.656;10.076;2023-04-15T06:38:57;99269.31;;;-145.95;100.00
37648;BME280;23490;53.656;10.076;2023-04-15T06:41:22;99294.09;;;-145.95;100.00
37648;BME280;23490;53.656;10.076;2023-04-15T06:43:48;99294.09;;;-145.95;100.00
37648;BME280;23490;53.656;10.076;2023-04-15T06:46:13;99306.50;;;-145.95;100.00
37648;BME280;23490;53.656;10.076;2023-04-15T06:48:40;99298.22;;;-145.95;100.00
37648;BME280;23490;53.656;10.076;2023-04-15T06:51:06;99285.84;;;-145.95;100.00
37648;BME280;23490;53.656;10.076;2023-04-15T06:53:31;99302.34;;;-145.95;100.00
37648;BME280;23490;53.656;10.076;2023-04-15T06:55:57;99289.97;;;-145.95;100.00
37648;BME280;23490;53.656;10.076;2023-04-15T06:58:22;99273.44;;;-145.95;100.00
37648;BME280;23490;53.656;10.076;2023-04-15T07:00:48;99281.72;;;-145.95;100.00
37648;BME280;23490;53.656;10.076;2023-04-15T07:03:14;99273.44;;;-145.95;100.00
37648;BME280;23490;53.656;10.076;2023-04-15T07:05:39;99285.84;;;-145.95;100.00
37648;BME280;23490;53.656;10.076;2023-04-15T07:08:05;99273.44;;;-145.95;100.00
37648;BME280;23490;53.656;10.076;2023-04-15T07:10:34;99281.72;;;-145.95;100.00
37648;BME280;23490;53.656;10.076;2023-04-15T07:13:01;99256.94;;;-145.95;100.00
37648;BME280;23490;53.656;10.076;2023-04-15T07:15:26;99302.34;;;-145.95;100.00
37648;BME280;23490;53.656;10.076;2023-04-15T07:17:52;99256.94;;;-145.95;100.00
37648;BME280;23490;53.656;10.076;2023-04-15T07:20:18;99273.44;;;-145.95;100.00
37648;BME280;23490;53.656;10.076;2023-04-15T07:22:43;99248.66;;;-145.95;100.00
37648;BME280;23490;53.656;10.076;2023-04-15T07:25:09;99273.44;;;-145.95;100.00
37648;BME280;23490;53.656;10.076;2023-04-15T07:27:34;99240.41;;;-145.95;100.00
37648;BME280;23490;53.656;10.076;2023-04-15T07:30:00;99248.66;;;-145.95;100.00
37648;BME280;23490;53.656;10.076;2023-04-15T07:32:26;99273.44;;;-145.95;100.00
37648;BME280;23490;53.656;10.076;2023-04-15T07:34:51;99252.78;;;-145.95;100.00
37648;BME280;23490;53.656;10.076;2023-04-15T07:37:17;99261.06;;;-145.95;100.00
37648;BME280;23490;53.656;10.076;2023-04-15T07:40:08;99254.84;;;-145.95;100.00
37648;BME280;23490;53.656;10.076;2023-04-15T07:42:34;99273.44;;;-145.95;100.00
37648;BME280;23490;53.656;10.076;2023-04-15T07:44:59;99242.47;;;-145.95;100.00
37648;BME280;23490;53.656;10.076;2023-04-15T07:47:25;99261.06;;;-145.95;100.00
37648;BME280;23490;53.656;10.076;2023-04-15T07:49:52;99246.59;;;-145.95;100.00
37648;BME280;23490;53.656;10.076;2023-04-15T07:52:17;99219.75;;;-145.95;100.00
37648;BME280;23490;53.656;10.076;2023-04-15T07:54:44;99211.50;;;-145.95;100.00
37648;BME280;23490;53.656;10.076;2023-04-15T07:57:09;99203.22;;;-145.95;100.00
37648;BME280;23490;53.656;10.076;2023-04-15T07:59:35;99223.88;;;-145.95;100.00
37648;BME280;23490;53.656;10.076;2023-04-15T08:02:01;99166.06;;;-145.95;100.00
37648;BME280;23490;53.656;10.076;2023-04-15T08:04:26;99230.06;;;-145.95;100.00
37648;BME280;23490;53.656;10.076;2023-04-15T08:06:52;99203.22;;;-145.95;100.00
37648;BME280;23490;53.656;10.076;2023-04-15T08:09:18;99232.16;;;-145.95;100.00
37648;BME280;23490;53.656;10.076;2023-04-15T08:11:43;99203.22;;;-145.95;100.00
37648;BME280;23490;53.656;10.076;2023-04-15T08:14:09;99234.22;;;-145.95;100.00
37648;BME280;23490;53.656;10.076;2023-04-15T08:16:34;99221.81;;;-145.95;100.00
37648;BME280;23490;53.656;10.076;2023-04-15T08:19:01;99207.38;;;-145.95;100.00
37648;BME280;23490;53.656;10.076;2023-04-15T08:21:26;99201.16;;;-145.95;100.00
37648;BME280;23490;53.656;10.076;2023-04-15T08:23:52;99201.16;;;-145.95;100.00
37648;BME280;23490;53.656;10.076;2023-04-15T08:26:19;99207.38;;;-145.95;100.00
37648;BME280;23490;53.656;10.076;2023-04-15T08:28:46;99180.50;;;-145.95;100.00
37648;BME280;23490;53.656;10.076;2023-04-15T08:31:13;99238.34;;;-145.95;100.00
37648;BME280;23490;53.656;10.076;2023-04-15T08:33:39;99199.09;;;-145.95;100.00
37648;BME280;23490;53.656;10.076;2023-04-15T08:36:05;99186.72;;;-145.95;100.00
37648;BME280;23490;53.656;10.076;2023-04-15T08:38:31;99194.97;;;-145.95;100.00
37648;BME280;23490;53.656;10.076;2023-04-15T08:40:59;99178.44;;;-145.95;100.00
37648;BME280;23490;53.656;10.076;2023-04-15T08:43:27;99186.72;;;-145.95;100.00
37648;BME280;23490;53.656;10.076;2023-04-15T08:45:59;99186.72;;;-145.95;100.00
37648;BME280;23490;53.656;10.076;2023-04-15T08:48:31;99161.94;;;-145.95;100.00
37648;BME280;23490;53.656;10.076;2023-04-15T08:50:57;99203.22;;;-145.95;100.00
37648;BME280;23490;53.656;10.076;2023-04-15T08:53:28;99203.22;;;-145.95;100.00
37648;BME280;23490;53.656;10.076;2023-04-15T08:55:54;99153.66;;;-145.95;100.00
37648;BME280;23490;53.656;10.076;2023-04-15T08:58:21;99124.75;;;-145.95;100.00
37648;BME280;23490;53.656;10.076;2023-04-15T09:00:46;99112.38;;;-145.95;100.00
37648;BME280;23490;53.656;10.076;2023-04-15T09:03:13;99157.81;;;-145.95;100.00
37648;BME280;23490;53.656;10.076;2023-04-15T09:05:39;99108.25;;;-145.95;100.00
37648;BME280;23490;53.656;10.076;2023-04-15T09:08:04;99128.88;;;-145.95;100.00
37648;BME280;23490;53.656;10.076;2023-04-15T09:10:31;99104.09;;;-145.95;100.00
37648;BME280;23490;53.656;10.076;2023-04-15T09:12:57;99108.25;;;-145.95;100.00
37648;BME280;23490;53.656;10.076;2023-04-15T09:15:24;99108.25;;;-145.95;100.00
37648;BME280;23490;53.656;10.076;2023-04-15T09:17:50;99062.81;;;-145.95;100.00
37648;BME280;23490;53.656;10.076;2023-04-15T09:20:16;99112.38;;;-145.95;100.00
37648;BME280;23490;53.656;10.076;2023-04-15T09:22:44;99087.59;;;-145.95;100.00
37648;BME280;23490;53.656;10.076;2023-04-15T09:27:49;98980.22;;;-145.95;100.00
37648;BME280;23490;53.656;10.076;2023-04-15T09:30:16;98930.66;;;-145.95;100.00
37648;BME280;23490;53.656;10.076;2023-04-15T09:32:49;98971.94;;;-145.95;100.00
37648;BME280;23490;53.656;10.076;2023-04-15T09:35:15;98959.56;;;-145.95;100.00
37648;BME280;23490;53.656;10.076;2023-04-15T09:37:40;98982.28;;;-145.95;100.00
37648;BME280;23490;53.656;10.076;2023-04-15T09:40:06;98949.22;;;-145.95;100.00
37648;BME280;23490;53.656;10.076;2023-04-15T09:42:34;98971.94;;;-145.95;100.00
37648;BME280;23490;53.656;10.076;2023-04-15T09:45:11;98984.34;;;-145.95;100.00
37648;BME280;23490;53.656;10.076;2023-04-15T09:47:38;98914.13;;;-145.95;100.00
37648;BME280;23490;53.656;10.076;2023-04-15T09:50:05;98943.03;;;-145.95;100.00
37648;BME280;23490;53.656;10.076;2023-04-15T09:52:30;98893.47;;;-145.95;100.00
37648;BME280;23490;53.656;10.076;2023-04-15T09:54:58;98835.66;;;-145.95;100.00
37648;BME280;23490;53.656;10.076;2023-04-15T09:57:24;98951.31;;;-145.95;100.00
37648;BME280;23490;53.656;10.076;2023-04-15T09:59:50;98876.97;;;-145.95;100.00
37648;BME280;23490;53.656;10.076;2023-04-15T10:02:18;98893.47;;;-145.95;100.00
37648;BME280;23490;53.656;10.076;2023-04-15T10:04:47;98843.94;;;-145.95;100.00
37648;BME280;23490;53.656;10.076;2023-04-15T10:07:13;98823.28;;;-145.95;100.00
37648;BME280;23490;53.656;10.076;2023-04-15T10:09:39;98763.41;;;-145.95;100.00
37648;BME280;23490;53.656;10.076;2023-04-15T10:12:04;98682.88;;;-145.95;100.00
37648;BME280;23490;53.656;10.076;2023-04-15T10:14:33;98649.84;;;-145.95;97.74
37648;BME280;23490;53.656;10.076;2023-04-15T10:17:03;98563.13;;;-145.95;98.65
37648;BME280;23490;53.656;10.076;2023-04-15T10:19:35;98627.13;;;-145.95;95.98
37648;BME280;23490;53.656;10.076;2023-04-15T10:22:01;98633.31;;;-145.95;96.63
37648;BME280;23490;53.656;10.076;2023-04-15T10:24:27;98732.44;;;-145.95;94.69
37648;BME280;23490;53.656;10.076;2023-04-15T10:26:54;98664.28;;;-145.95;96.71
37648;BME280;23490;53.656;10.076;2023-04-15T10:29:22;98699.38;;;-145.95;96.31
37648;BME280;23490;53.656;10.076;2023-04-15T10:31:50;98699.38;;;-145.95;96.82
37648;BME280;23490;53.656;10.076;2023-04-15T10:34:16;98525.94;;;-145.95;93.78
37648;BME280;23490;53.656;10.076;2023-04-15T10:36:42;98435.09;;;-145.95;88.63
37648;BME280;23490;53.656;10.076;2023-04-15T10:42:12;98534.22;;;-145.95;87.02
37648;BME280;23490;53.656;10.076;2023-04-15T10:44:44;98286.47;;;-145.95;84.07
37648;BME280;23490;53.656;10.076;2023-04-15T10:47:16;98302.97;;;-145.95;79.12
37648;BME280;23490;53.656;10.076;2023-04-15T10:49:49;98422.72;;;-145.95;81.77
37648;BME280;23490;53.656;10.076;2023-04-15T10:52:16;98480.53;;;-145.95;80.56
37648;BME280;23490;53.656;10.076;2023-04-15T10:54:42;98501.19;;;-145.95;82.71
37648;BME280;23490;53.656;10.076;2023-04-15T10:57:14;98234.84;;;-145.95;78.33
37648;BME280;23490;53.656;10.076;2023-04-15T11:00:01;98350.47;;;-145.95;80.79
37648;BME280;23490;53.656;10.076;2023-04-15T11:08:09;98439.22;;;-145.95;77.59
37648;BME280;23490;53.656;10.076;2023-04-15T11:13:15;98474.34;;;-145.95;77.29
37648;BME280;23490;53.656;10.076;2023-04-15T11:15:43;98565.19;;;-145.95;79.10
37648;BME280;23490;53.656;10.076;2023-04-15T11:20:47;98596.16;;;-145.95;78.04
37648;BME280;23490;53.656;10.076;2023-04-15T11:23:15;98542.47;;;-145.95;78.23
37648;BME280;23490;53.656;10.076;2023-04-15T11:25:49;98523.88;;;-145.95;78.48
37648;BME280;23490;53.656;10.076;2023-04-15T11:28:15;98550.72;;;-145.95;77.57
37648;BME280;23490;53.656;10.076;2023-04-15T11:30:41;98538.34;;;-145.95;78.70
37648;BME280;23490;53.656;10.076;2023-04-15T11:33:08;98587.88;;;-145.95;78.72
37648;BME280;23490;53.656;10.076;2023-04-15T11:35:34;98592.03;;;-145.95;78.37
37648;BME280;23490;53.656;10.076;2023-04-15T11:38:04;98509.44;;;-145.95;81.30
37648;BME280;23490;53.656;10.076;2023-04-15T11:40:29;98302.97;;;-145.95;76.39
37648;BME280;23490;53.656;10.076;2023-04-15T11:45:31;97914.84;;;-145.95;66.77
37648;BME280;23490;53.656;10.076;2023-04-15T11:48:09;98253.44;;;-145.95;66.29
37648;BME280;23490;53.656;10.076;2023-04-15T11:50:35;98451.63;;;-145.95;72.31
37648;BME280;23490;53.656;10.076;2023-04-15T11:53:05;98565.19;;;-145.95;73.80
37648;BME280;23490;53.656;10.076;2023-04-15T11:55:40;98589.97;;;-145.95;75.99
37648;BME280;23490;53.656;10.076;2023-04-15T11:58:15;98486.72;;;-145.95;74.97
37648;BME280;23490;53.656;10.076;2023-04-15T12:00:48;98608.53;;;-145.95;76.01
37648;BME280;23490;53.656;10.076;2023-04-15T12:03:18;98641.56;;;-145.95;77.07
37648;BME280;23490;53.656;10.076;2023-04-15T12:06:03;98674.59;;;-145.95;76.94
37648;BME280;23490;53.656;10.076;2023-04-15T12:16:45;98668.41;;;-145.95;78.56
37648;BME280;23490;53.656;10.076;2023-04-15T12:19:21;98699.38;;;-145.95;79.92
37648;BME280;23490;53.656;10.076;2023-04-15T12:21:47;98682.88;;;-145.95;79.76
37648;BME280;23490;53.656;10.076;2023-04-15T12:24:13;98701.44;;;-145.95;78.93
37648;BME280;23490;53.656;10.076;2023-04-15T12:26:52;98691.13;;;-145.95;79.07
37648;BME280;23490;53.656;10.076;2023-04-15T12:29:18;98699.38;;;-145.95;78.78
37648;BME280;23490;53.656;10.076;2023-04-15T12:31:52;98670.47;;;-145.95;77.85
37648;BME280;23490;53.656;10.076;2023-04-15T12:34:33;98649.84;;;-145.95;78.50
37648;BME280;23490;53.656;10.076;2023-04-15T12:37:02;98608.53;;;-145.95;78.52
37648;BME280;23490;53.656;10.076;2023-04-15T12:39:30;98625.06;;;-145.95;78.32
37648;BME280;23490;53.656;10.076;2023-04-15T12:41:56;98618.88;;;-145.95;78.14
37648;BME280;23490;53.656;10.076;2023-04-15T12:44:23;98620.94;;;-145.95;78.03
37648;BME280;23490;53.656;10.076;2023-04-15T12:46:49;98604.41;;;-145.95;76.01
37648;BME280;23490;53.656;10.076;2023-04-15T12:49:15;98554.84;;;-145.95;77.24
37648;BME280;23490;53.656;10.076;2023-04-15T12:51:43;98558.97;;;-145.95;76.14